createdAt,value
2023-02-16T00:02:55.297Z,31.9
2023-02-16T00:08:34.458Z,31.9
2023-02-16T00:13:56.857Z,31.8
2023-02-16T00:19:19.542Z,31.8
2023-02-16T00:24:41.671Z,31.8
2023-02-16T00:30:19.982Z,31.8
2023-02-16T00:35:58.982Z,31.7
2023-02-16T00:41:20.916Z,31.6
2023-02-16T00:46:27.904Z,31.6
2023-02-16T00:57:20.178Z,31.6
2023-02-16T01:02:58.484Z,31.6
2023-02-16T01:08:36.531Z,31.5
2023-02-16T01:14:12.723Z,31.5
2023-02-16T01:19:48.992Z,31.4
2023-02-16T01:25:11.627Z,31.4
2023-02-16T01:30:49.781Z,31.4
2023-02-16T01:36:28.728Z,31.4
2023-02-16T01:42:05.868Z,31.3
2023-02-16T01:47:28.444Z,31.3
2023-02-16T01:53:05.081Z,31.3
2023-02-16T01:58:42.268Z,31.2
2023-02-16T02:04:20.146Z,31.2
2023-02-16T02:09:56.788Z,31.1
2023-02-16T02:15:34.439Z,31.1
2023-02-16T02:20:57.247Z,31.1
2023-02-16T02:26:18.645Z,31.1
2023-02-16T02:31:57.463Z,31.1
2023-02-16T02:37:35.046Z,31
2023-02-16T02:43:13.004Z,30.9
2023-02-16T02:54:11.813Z,30.9
2023-02-16T03:04:39.613Z,30.9
2023-02-16T03:10:02.236Z,30.9
2023-02-16T03:20:45.970Z,30.9
2023-02-16T03:26:23.461Z,30.8
2023-02-16T03:32:02.497Z,30.9
2023-02-16T03:37:40.537Z,30.9
2023-02-16T03:43:17.969Z,30.9
2023-02-16T03:54:01.620Z,30.8
2023-02-16T03:59:40.044Z,30.8
2023-02-16T04:05:04.418Z,30.8
2023-02-16T04:10:42.391Z,30.7
2023-02-16T04:16:22.274Z,30.7
2023-02-16T04:27:20.913Z,30.6
2023-02-16T04:33:00.487Z,30.5
2023-02-16T04:38:38.780Z,30.5
2023-02-16T04:44:01.515Z,30.5
2023-02-16T04:49:39.573Z,30.4
2023-02-16T05:00:38.624Z,30.4
2023-02-16T05:06:17.258Z,30.3
2023-02-16T05:11:55.038Z,30.3
2023-02-16T05:22:56.317Z,30.2
2023-02-16T05:28:34.782Z,30.1
2023-02-16T05:34:16.092Z,30.1
2023-02-16T05:39:54.435Z,30
2023-02-16T05:45:31.690Z,29.9
2023-02-16T05:51:10.913Z,29.9
2023-02-16T05:56:48.109Z,29.9
2023-02-16T06:02:26.112Z,29.9
2023-02-16T06:08:04.780Z,29.8
2023-02-16T06:13:40.992Z,29.8
2023-02-16T06:19:17.676Z,29.8
2023-02-16T06:24:54.915Z,29.8
2023-02-16T06:30:33.447Z,29.7
2023-02-16T06:36:12.836Z,29.7
2023-02-16T06:41:51.128Z,29.7
2023-02-16T06:47:28.918Z,29.6
2023-02-16T06:53:08.196Z,29.6
2023-02-16T06:58:33.357Z,29.6
2023-02-16T07:04:13.517Z,29.5
2023-02-16T07:09:34.072Z,29.6
2023-02-16T07:15:19.310Z,37.4
2023-02-16T07:20:57.018Z,36.9
2023-02-16T07:26:33.676Z,35.3
2023-02-16T07:32:12.699Z,37.9
2023-02-16T07:37:51.057Z,40.4
2023-02-16T07:43:28.239Z,43.9
2023-02-16T07:49:06.782Z,45.3
2023-02-16T07:54:44.083Z,46.4
2023-02-16T08:00:21.964Z,47.6
2023-02-16T08:06:04.486Z,48.6
2023-02-16T08:11:43.821Z,49.8
2023-02-16T08:17:25.669Z,50.9
2023-02-16T08:28:37.165Z,52.9
2023-02-16T08:34:00.237Z,54
2023-02-16T08:39:38.030Z,54.9
2023-02-16T08:45:16.716Z,55.6
2023-02-16T08:50:54.099Z,56.2
2023-02-16T08:56:33.995Z,56.9
2023-02-16T09:02:14.824Z,57.6
2023-02-16T09:07:51.727Z,58.3
2023-02-16T09:12:43.152Z,58.9
2023-02-16T09:18:07.482Z,59.5
2023-02-16T09:23:45.671Z,60.1
2023-02-16T09:29:23.291Z,60.9
2023-02-16T09:35:01.016Z,61.6
2023-02-16T09:40:37.762Z,62.2
2023-02-16T09:46:15.666Z,62.1
2023-02-16T09:52:24.266Z,62.7
2023-02-16T09:58:02.257Z,63.8
2023-02-16T10:03:25.817Z,64.1
2023-02-16T10:08:32.766Z,64.6
2023-02-16T10:14:10.096Z,64.9
2023-02-16T10:19:49.120Z,65.5
2023-02-16T10:25:25.520Z,66
2023-02-16T10:31:03.035Z,66.4
2023-02-16T10:36:41.063Z,66.9
2023-02-16T10:42:18.835Z,67.3
2023-02-16T10:47:58.683Z,67.6
2023-02-16T10:53:20.980Z,67.8
2023-02-16T10:58:58.307Z,68.3
2023-02-16T11:04:38.535Z,68.4
2023-02-16T11:10:01.352Z,68.6
2023-02-16T11:15:38.966Z,68.9
2023-02-16T11:21:16.133Z,69.2
2023-02-16T11:26:52.716Z,69.3
2023-02-16T11:32:31.645Z,69.3
2023-02-16T11:38:08.541Z,69.1
2023-02-16T11:44:01.198Z,69.4
2023-02-16T11:49:24.185Z,69.5
2023-02-16T11:55:01.135Z,69.4
2023-02-16T12:00:38.666Z,69.6
2023-02-16T12:06:18.251Z,69.6
2023-02-16T12:11:56.083Z,69.5
2023-02-16T12:17:34.550Z,69.8
2023-02-16T12:23:12.898Z,69.8
2023-02-16T12:28:49.818Z,69.4
2023-02-16T12:34:27.148Z,69.3
2023-02-16T12:40:06.263Z,69.2
2023-02-16T12:45:45.992Z,69
2023-02-16T12:51:11.990Z,68.7
2023-02-16T12:56:50.252Z,68.7
2023-02-16T13:02:28.346Z,68.3
2023-02-16T13:08:09.106Z,67.8
2023-02-16T13:13:46.663Z,67.8
2023-02-16T13:19:32.845Z,67.3
2023-02-16T13:25:14.633Z,66.9
2023-02-16T13:30:55.066Z,66.5
2023-02-16T13:36:35.978Z,66.1
2023-02-16T13:42:13.149Z,65.6
2023-02-16T13:47:51.147Z,65.1
2023-02-16T13:53:11.933Z,64.4
2023-02-16T13:58:33.707Z,63.8
2023-02-16T14:03:56.046Z,63.2
2023-02-16T14:09:33.850Z,62.5
2023-02-16T14:15:11.114Z,61.7
2023-02-16T14:20:50.704Z,61.1
2023-02-16T14:26:27.966Z,60.3
2023-02-16T14:32:05.680Z,59.5
2023-02-16T14:37:44.550Z,58.6
2023-02-16T14:43:44.086Z,57.6
2023-02-16T14:49:21.880Z,56.7
2023-02-16T14:54:59.953Z,53.9
2023-02-16T15:00:38.831Z,50.8
2023-02-16T15:06:01.337Z,49.2
2023-02-16T15:11:38.363Z,48.1
2023-02-16T15:17:15.224Z,47.3
2023-02-16T15:22:52.742Z,46.6
2023-02-16T15:28:30.541Z,46.1
2023-02-16T15:34:10.996Z,45.8
2023-02-16T15:39:48.528Z,45.4
2023-02-16T15:45:45.513Z,45.1
2023-02-16T15:51:26.141Z,44.8
2023-02-16T15:56:47.169Z,44.6
2023-02-16T16:02:32.918Z,44.3
2023-02-16T16:08:10.109Z,44.1
2023-02-16T16:13:31.781Z,43.8
2023-02-16T16:18:55.191Z,43.6
2023-02-16T16:29:55.789Z,43.2
2023-02-16T16:35:34.549Z,43
2023-02-16T16:41:26.756Z,42.8
2023-02-16T16:46:48.496Z,42.6
2023-02-16T16:52:26.062Z,42.4
2023-02-16T16:58:04.132Z,42.3
2023-02-16T17:03:25.736Z,42
2023-02-16T17:09:03.318Z,41.9
2023-02-16T17:14:40.970Z,41.8
2023-02-16T17:20:18.006Z,41.6
2023-02-16T17:25:48.243Z,41.6
2023-02-16T17:31:26.874Z,41.5
2023-02-16T17:36:48.928Z,41.4
2023-02-16T17:42:28.182Z,41.2
2023-02-16T17:48:05.718Z,41
2023-02-16T17:58:35.065Z,40.5
2023-02-16T18:04:00.254Z,40.3
2023-02-16T18:09:37.654Z,40.1
2023-02-16T18:15:15.788Z,39.9
2023-02-16T18:20:40.794Z,39.8
2023-02-16T18:26:33.374Z,39.7
2023-02-16T18:32:25.965Z,39.8
2023-02-16T18:43:12.509Z,39.8
2023-02-16T18:48:51.606Z,39.8
2023-02-16T18:54:29.200Z,39.7
2023-02-16T19:00:06.640Z,39.7
2023-02-16T19:05:44.418Z,39.6
2023-02-16T19:11:22.145Z,39.6
2023-02-16T19:16:59.350Z,39.5
2023-02-16T19:22:37.298Z,39.4
2023-02-16T19:33:37.383Z,39.3
2023-02-16T19:38:59.907Z,39.3
2023-02-16T19:44:22.368Z,39.3
2023-02-16T19:49:43.936Z,39.2
2023-02-16T19:55:06.758Z,39.1
2023-02-16T20:00:44.570Z,39.1
2023-02-16T20:06:09.499Z,39.1
2023-02-16T20:11:47.183Z,39
2023-02-16T20:17:24.671Z,38.9
2023-02-16T20:22:45.665Z,38.8
2023-02-16T20:28:23.974Z,38.7
2023-02-16T20:34:01.456Z,38.2
2023-02-16T20:39:07.795Z,37.8
2023-02-16T20:44:29.750Z,38.1
2023-02-16T20:49:36.587Z,38.1
2023-02-16T20:55:14.208Z,38.1
2023-02-16T21:01:05.702Z,38.1
2023-02-16T21:06:43.902Z,38.1
2023-02-16T21:12:21.750Z,38.1
2023-02-16T21:17:44.042Z,37.9
2023-02-16T21:23:34.003Z,37.9
2023-02-16T21:29:10.401Z,37.8
2023-02-16T21:39:39.156Z,37.7
2023-02-16T21:45:16.249Z,37.6
2023-02-16T21:50:54.038Z,37.6
2023-02-16T21:56:15.602Z,37.5
2023-02-16T22:01:52.957Z,37.4
2023-02-16T22:07:31.180Z,37.4
2023-02-16T22:13:09.011Z,37.3
2023-02-16T22:18:46.242Z,37.3
2023-02-16T22:24:26.751Z,37.2
2023-02-16T22:30:04.124Z,37.2
2023-02-16T22:35:42.188Z,37.1
2023-02-16T22:41:20.141Z,37.1
2023-02-16T22:46:58.726Z,37
2023-02-16T22:52:35.796Z,36.9
2023-02-16T22:57:59.773Z,36.9
2023-02-16T23:03:37.587Z,36.8
2023-02-16T23:08:59.719Z,36.8
2023-02-16T23:14:21.572Z,36.7
2023-02-16T23:19:59.403Z,36.7
2023-02-16T23:25:36.664Z,36.6
2023-02-16T23:31:13.855Z,36.6
2023-02-16T23:36:50.980Z,36.5
2023-02-16T23:42:28.555Z,36.5
2023-02-16T23:48:06.133Z,36.4
2023-02-16T23:53:43.862Z,36.4
2023-02-16T23:59:20.919Z,36.3
